createdAt,value
2023-03-12T00:01:33.357Z,50.88
2023-03-12T00:04:22.777Z,43.17
2023-03-12T00:07:13.540Z,53.88
2023-03-12T00:10:03.403Z,43.33
2023-03-12T00:12:52.781Z,44.72
2023-03-12T00:15:42.865Z,42.55
2023-03-12T00:18:32.272Z,45.15
2023-03-12T00:21:22.800Z,36.33
2023-03-12T00:24:13.356Z,29.17
2023-03-12T00:27:02.635Z,71.95
2023-03-12T00:29:52.106Z,77.78
2023-03-12T00:32:41.784Z,46.83
2023-03-12T00:35:30.985Z,47.63
2023-03-12T00:38:20.702Z,70.80
2023-03-12T00:41:12.559Z,72.55
2023-03-12T00:44:01.864Z,45.97
2023-03-12T00:46:51.196Z,43.10
2023-03-12T00:49:40.964Z,49.38
2023-03-12T00:52:30.177Z,40.47
2023-03-12T00:55:19.578Z,46.03
2023-03-12T00:58:10.311Z,44.03
2023-03-12T01:00:59.973Z,45.85
2023-03-12T01:03:51.681Z,45.22
2023-03-12T01:06:41.160Z,44.97
2023-03-12T01:09:30.510Z,47.72
2023-03-12T01:12:19.712Z,46.45
2023-03-12T01:15:13.775Z,41.53
2023-03-12T01:18:03.097Z,41.92
2023-03-12T01:20:52.514Z,47.30
2023-03-12T01:23:41.683Z,52.33
2023-03-12T01:26:30.894Z,47.13
2023-03-12T01:29:20.128Z,58.45
2023-03-12T01:32:10.928Z,55.78
2023-03-12T01:35:00.441Z,49.28
2023-03-12T01:37:49.723Z,57.63
2023-03-12T01:40:38.969Z,46.83
2023-03-12T01:43:32.509Z,41.38
2023-03-12T01:46:32.594Z,50.58
2023-03-12T01:49:28.565Z,49.17
2023-03-12T01:52:24.224Z,49.00
2023-03-12T01:55:19.085Z,48.08
2023-03-12T02:00:59.189Z,45.85
2023-03-12T02:03:52.439Z,80.70
2023-03-12T02:06:55.083Z,33.20
2023-03-12T02:09:48.698Z,56.83
2023-03-12T02:12:38.101Z,47.15
2023-03-12T02:15:27.910Z,47.45
2023-03-12T02:18:20.011Z,39.80
2023-03-12T02:21:18.086Z,46.20
2023-03-12T02:24:22.956Z,38.22
2023-03-12T02:27:14.096Z,59.30
2023-03-12T02:30:06.830Z,47.37
2023-03-12T02:32:57.432Z,62.33
2023-03-12T02:35:48.835Z,38.08
2023-03-12T02:38:44.004Z,47.85
2023-03-12T02:41:37.389Z,47.88
2023-03-12T02:44:31.392Z,41.78
2023-03-12T02:47:20.855Z,51.28
2023-03-12T02:50:11.841Z,59.42
2023-03-12T02:53:01.062Z,51.50
2023-03-12T02:55:50.300Z,52.75
2023-03-12T02:58:39.599Z,42.92
2023-03-12T03:01:33.977Z,53.17
2023-03-12T03:04:24.007Z,62.65
2023-03-12T03:07:14.958Z,52.38
2023-03-12T03:10:05.069Z,42.00
2023-03-12T03:12:55.328Z,44.50
2023-03-12T03:15:44.740Z,44.20
2023-03-12T03:18:35.567Z,53.53
2023-03-12T03:21:24.834Z,46.33
2023-03-12T03:24:14.179Z,50.17
2023-03-12T03:27:03.442Z,51.70
2023-03-12T03:29:52.779Z,37.83
2023-03-12T03:32:42.836Z,39.25
2023-03-12T03:35:35.549Z,39.95
2023-03-12T03:38:25.283Z,48.35
2023-03-12T03:41:14.606Z,46.85
2023-03-12T03:44:07.881Z,44.08
2023-03-12T03:46:59.353Z,50.85
2023-03-12T03:49:48.934Z,62.45
2023-03-12T03:52:40.401Z,42.13
2023-03-12T03:55:29.775Z,38.58
2023-03-12T03:58:19.173Z,49.78
2023-03-12T04:01:09.076Z,32.85
2023-03-12T04:03:59.076Z,90.85
2023-03-12T04:06:50.971Z,40.72
2023-03-12T04:09:41.685Z,51.33
2023-03-12T04:12:31.352Z,38.92
2023-03-12T04:15:20.730Z,35.45
2023-03-12T04:18:11.293Z,28.65
2023-03-12T04:21:01.200Z,34.08
2023-03-12T04:23:50.656Z,44.55
2023-03-12T04:26:42.646Z,41.67
2023-03-12T04:29:32.791Z,36.80
2023-03-12T04:32:22.407Z,40.92
2023-03-12T04:35:12.067Z,41.30
2023-03-12T04:38:03.395Z,42.25
2023-03-12T04:41:00.375Z,32.38
2023-03-12T04:43:51.354Z,40.55
2023-03-12T04:46:41.812Z,42.30
2023-03-12T04:49:33.064Z,41.83
2023-03-12T04:52:22.717Z,32.55
2023-03-12T04:55:12.473Z,39.95
2023-03-12T04:58:02.285Z,30.10
2023-03-12T05:00:53.572Z,38.92
2023-03-12T05:03:43.100Z,44.65
2023-03-12T05:06:32.847Z,44.17
2023-03-12T05:09:22.130Z,45.45
2023-03-12T05:12:12.146Z,38.47
2023-03-12T05:15:01.490Z,49.22
2023-03-12T05:17:53.452Z,38.10
2023-03-12T05:20:43.953Z,34.50
2023-03-12T05:23:34.675Z,37.55
2023-03-12T05:26:26.522Z,41.47
2023-03-12T05:29:22.094Z,40.78
2023-03-12T05:32:11.713Z,48.72
2023-03-12T05:35:03.181Z,43.13
2023-03-12T05:37:52.526Z,38.20
2023-03-12T05:40:41.879Z,42.78
2023-03-12T05:43:31.634Z,46.28
2023-03-12T05:46:21.000Z,41.40
2023-03-12T05:49:10.490Z,37.35
2023-03-12T05:52:01.171Z,45.65
2023-03-12T05:54:50.581Z,34.15
2023-03-12T05:57:40.000Z,39.55
2023-03-12T06:00:29.784Z,50.85
2023-03-12T06:03:20.104Z,49.08
2023-03-12T06:06:09.455Z,37.42
2023-03-12T06:09:00.301Z,34.50
2023-03-12T06:11:49.630Z,52.40
2023-03-12T06:14:38.911Z,44.22
2023-03-12T06:17:30.417Z,40.38
2023-03-12T06:20:20.219Z,39.10
2023-03-12T06:23:09.569Z,41.58
2023-03-12T06:26:00.809Z,44.10
2023-03-12T06:28:51.699Z,36.00
2023-03-12T06:31:42.233Z,43.45
2023-03-12T06:34:31.649Z,40.10
2023-03-12T06:37:20.975Z,42.08
2023-03-12T06:40:13.146Z,44.15
2023-03-12T06:43:04.110Z,37.28
2023-03-12T06:45:53.515Z,38.28
2023-03-12T06:48:43.063Z,48.08
2023-03-12T06:51:32.475Z,43.67
2023-03-12T06:54:21.842Z,37.35
2023-03-12T06:57:11.451Z,39.55
2023-03-12T07:00:02.270Z,44.03
2023-03-12T07:02:51.466Z,46.25
2023-03-12T07:05:40.824Z,40.03
2023-03-12T07:08:31.227Z,45.25
2023-03-12T07:11:20.582Z,38.15
2023-03-12T07:14:09.893Z,44.25
2023-03-12T07:17:02.032Z,42.67
2023-03-12T07:19:51.227Z,33.70
2023-03-12T07:22:40.400Z,43.25
2023-03-12T07:25:29.720Z,45.17
2023-03-12T07:28:20.091Z,47.92
2023-03-12T07:31:09.624Z,48.00
2023-03-12T07:34:00.497Z,44.25
2023-03-12T07:36:49.976Z,48.17
2023-03-12T07:39:39.631Z,44.28
2023-03-12T07:42:28.919Z,49.40
2023-03-12T07:45:20.285Z,48.90
2023-03-12T07:48:09.771Z,37.97
2023-03-12T07:51:00.446Z,54.95
2023-03-12T07:53:50.361Z,40.47
2023-03-12T07:56:39.759Z,42.38
2023-03-12T07:59:29.054Z,46.47
2023-03-12T08:02:19.268Z,46.75
2023-03-12T08:05:09.829Z,48.65
2023-03-12T08:08:00.447Z,45.10
2023-03-12T08:10:50.083Z,38.25
2023-03-12T08:13:39.314Z,42.58
2023-03-12T08:16:28.774Z,41.53
2023-03-12T08:19:18.155Z,38.13
2023-03-12T08:22:08.515Z,39.90
2023-03-12T08:24:59.116Z,37.80
2023-03-12T08:27:48.420Z,43.33
2023-03-12T08:30:37.726Z,44.90
2023-03-12T08:33:27.272Z,31.92
2023-03-12T08:36:16.452Z,38.13
2023-03-12T08:39:06.647Z,33.78
2023-03-12T08:41:57.264Z,49.05
2023-03-12T08:44:46.611Z,30.95
2023-03-12T08:47:36.271Z,49.88
2023-03-12T08:50:29.281Z,27.92
2023-03-12T08:53:18.906Z,35.80
2023-03-12T08:56:09.124Z,40.38
2023-03-12T08:58:59.772Z,37.75
2023-03-12T09:01:49.816Z,41.25
2023-03-12T09:04:39.349Z,36.33
2023-03-12T09:07:28.733Z,53.15
2023-03-12T09:10:18.682Z,35.60
2023-03-12T09:13:08.682Z,38.10
2023-03-12T09:16:02.683Z,32.25
2023-03-12T09:18:52.372Z,33.20
2023-03-12T09:21:41.991Z,29.80
2023-03-12T09:24:31.487Z,43.40
2023-03-12T09:27:21.103Z,33.13
2023-03-12T09:30:14.684Z,38.38
2023-03-12T09:33:05.848Z,30.30
2023-03-12T09:35:59.668Z,32.63
2023-03-12T09:38:49.186Z,34.78
2023-03-12T09:41:41.801Z,34.10
2023-03-12T09:44:38.460Z,34.42
2023-03-12T09:47:33.693Z,40.70
2023-03-12T09:50:29.602Z,29.38
2023-03-12T09:53:30.160Z,38.25
2023-03-12T09:56:22.480Z,32.45
2023-03-12T09:59:14.079Z,30.67
2023-03-12T10:02:08.203Z,29.70
2023-03-12T10:05:01.993Z,35.42
2023-03-12T10:08:07.566Z,37.42
2023-03-12T10:11:11.567Z,32.70
2023-03-12T10:14:23.355Z,34.53
2023-03-12T10:17:48.766Z,30.98
2023-03-12T10:20:55.081Z,26.23
2023-03-12T10:24:02.344Z,31.25
2023-03-12T10:26:55.229Z,30.65
2023-03-12T10:29:48.123Z,31.35
2023-03-12T10:32:43.577Z,31.65
2023-03-12T10:35:33.221Z,27.00
2023-03-12T10:38:31.629Z,33.40
2023-03-12T10:41:25.301Z,30.42
2023-03-12T10:44:22.605Z,31.13
2023-03-12T10:47:38.427Z,28.30
2023-03-12T10:50:30.240Z,30.55
2023-03-12T10:53:26.782Z,23.83
2023-03-12T10:56:20.238Z,26.55
2023-03-12T10:59:23.114Z,23.38
2023-03-12T11:02:45.889Z,32.63
2023-03-12T11:05:48.644Z,33.20
2023-03-12T11:08:39.141Z,31.75
2023-03-12T11:11:34.155Z,25.20
2023-03-12T11:14:27.955Z,41.85
2023-03-12T11:17:24.026Z,29.00
2023-03-12T11:20:31.123Z,28.05
2023-03-12T11:23:25.304Z,27.00
2023-03-12T11:26:20.220Z,23.75
2023-03-12T11:29:27.737Z,26.33
2023-03-12T11:32:21.472Z,27.73
2023-03-12T11:35:13.525Z,28.15
2023-03-12T11:38:13.888Z,31.20
2023-03-12T11:41:19.712Z,37.63
2023-03-12T11:44:29.306Z,21.70
2023-03-12T11:47:39.695Z,30.60
2023-03-12T11:50:48.476Z,35.55
2023-03-12T11:53:59.639Z,32.38
2023-03-12T11:56:53.312Z,37.65
2023-03-12T12:00:12.763Z,30.17
2023-03-12T12:03:45.714Z,42.60
2023-03-12T12:06:48.436Z,39.10
2023-03-12T12:09:46.080Z,27.80
2023-03-12T12:12:52.184Z,31.02
2023-03-12T12:15:56.992Z,33.08
2023-03-12T12:19:05.738Z,38.15
2023-03-12T12:22:33.293Z,37.22
2023-03-12T12:25:43.990Z,26.08
2023-03-12T12:29:06.053Z,29.48
2023-03-12T12:31:59.417Z,31.63
2023-03-12T12:35:19.883Z,28.33
2023-03-12T12:38:15.956Z,31.70
2023-03-12T12:41:12.528Z,34.15
2023-03-12T12:44:07.578Z,26.63
2023-03-12T12:47:05.737Z,33.75
2023-03-12T12:49:59.523Z,33.42
2023-03-12T12:52:58.157Z,30.13
2023-03-12T12:55:57.056Z,30.45
2023-03-12T12:59:10.418Z,30.48
2023-03-12T13:02:03.870Z,29.52
2023-03-12T13:04:56.421Z,26.52
2023-03-12T13:07:45.622Z,20.55
2023-03-12T13:10:57.093Z,48.05
2023-03-12T13:14:13.256Z,17.17
2023-03-12T13:17:39.078Z,25.55
2023-03-12T13:20:36.997Z,26.83
2023-03-12T13:23:38.093Z,16.50
2023-03-12T13:26:32.902Z,21.42
2023-03-12T13:29:37.749Z,34.20
2023-03-12T13:33:14.152Z,19.15
2023-03-12T13:36:24.703Z,13.82
2023-03-12T13:39:32.200Z,10.52
2023-03-12T13:42:43.059Z,14.30
2023-03-12T13:45:32.434Z,24.15
2023-03-12T13:48:25.498Z,21.67
2023-03-12T13:54:16.981Z,15.75
2023-03-12T13:57:13.478Z,13.15
2023-03-12T14:00:06.254Z,13.85
2023-03-12T14:03:03.094Z,17.48
2023-03-12T14:05:59.007Z,10.63
2023-03-12T14:09:05.513Z,21.77
2023-03-12T14:12:04.629Z,16.33
2023-03-12T14:15:16.732Z,10.40
2023-03-12T14:18:16.757Z,11.52
2023-03-12T14:21:15.611Z,11.52
2023-03-12T14:24:07.643Z,14.65
2023-03-12T14:26:58.755Z,11.07
2023-03-12T14:29:54.526Z,11.00
2023-03-12T14:32:45.583Z,15.68
2023-03-12T14:35:39.445Z,8.30
2023-03-12T14:38:35.596Z,9.75
2023-03-12T14:41:30.942Z,10.27
2023-03-12T14:44:25.171Z,15.88
2023-03-12T14:47:19.489Z,13.50
2023-03-12T14:50:18.692Z,9.13
2023-03-12T14:53:19.612Z,7.45
2023-03-12T14:56:16.892Z,8.57
2023-03-12T14:59:27.892Z,8.85
2023-03-12T15:02:21.482Z,9.70
2023-03-12T15:05:19.528Z,9.15
2023-03-12T15:08:09.005Z,11.95
2023-03-12T15:11:00.698Z,13.35
2023-03-12T15:13:52.328Z,12.90
2023-03-12T15:16:42.912Z,10.00
2023-03-12T15:19:37.292Z,10.88
2023-03-12T15:22:28.840Z,24.67
2023-03-12T15:25:25.156Z,15.73
2023-03-12T15:28:30.087Z,8.30
2023-03-12T15:31:21.397Z,11.43
2023-03-12T15:34:14.282Z,13.85
2023-03-12T15:37:20.533Z,15.73
2023-03-12T15:40:22.349Z,7.50
2023-03-12T15:43:20.576Z,8.80
2023-03-12T15:46:13.371Z,13.48
2023-03-12T15:49:04.293Z,11.80
2023-03-12T15:52:08.204Z,12.85
2023-03-12T15:55:25.464Z,24.60
2023-03-12T15:58:29.870Z,12.73
2023-03-12T16:01:24.129Z,9.55
2023-03-12T16:04:15.093Z,8.50
2023-03-12T16:07:04.612Z,10.55
2023-03-12T16:09:53.902Z,15.40
2023-03-12T16:12:44.686Z,8.00
2023-03-12T16:15:37.922Z,9.98
2023-03-12T16:18:27.396Z,7.20
2023-03-12T16:21:18.304Z,10.95
2023-03-12T16:24:08.300Z,9.63
2023-03-12T16:27:00.020Z,10.23
2023-03-12T16:29:49.299Z,8.82
2023-03-12T16:32:38.627Z,9.60
2023-03-12T16:35:28.785Z,8.65
2023-03-12T16:38:19.503Z,8.55
2023-03-12T16:41:12.834Z,12.43
2023-03-12T16:44:02.708Z,9.57
2023-03-12T16:46:52.013Z,9.48
2023-03-12T16:49:41.847Z,16.10
2023-03-12T16:52:31.612Z,9.68
2023-03-12T16:55:24.602Z,10.55
2023-03-12T16:58:16.861Z,6.80
2023-03-12T17:01:06.470Z,9.27
2023-03-12T17:03:55.845Z,8.75
2023-03-12T17:06:45.234Z,13.73
2023-03-12T17:09:34.597Z,8.98
2023-03-12T17:12:30.676Z,9.65
2023-03-12T17:15:24.104Z,9.00
2023-03-12T17:18:14.431Z,12.45
2023-03-12T17:21:03.698Z,13.43
2023-03-12T17:23:52.930Z,12.93
2023-03-12T17:26:42.246Z,14.18
2023-03-12T17:29:32.991Z,14.68
2023-03-12T17:32:22.357Z,13.15
2023-03-12T17:35:12.165Z,9.10
2023-03-12T17:38:01.673Z,17.80
2023-03-12T17:40:50.964Z,16.48
2023-03-12T17:43:41.309Z,24.70
2023-03-12T17:46:32.629Z,13.45
2023-03-12T17:49:22.750Z,18.23
2023-03-12T17:52:13.250Z,13.07
2023-03-12T17:55:03.472Z,14.73
2023-03-12T17:57:52.722Z,11.57
2023-03-12T18:00:42.115Z,21.98
2023-03-12T18:03:32.881Z,22.10
2023-03-12T18:06:22.399Z,17.55
2023-03-12T18:09:11.650Z,28.42
2023-03-12T18:12:01.106Z,13.82
2023-03-12T18:14:50.294Z,11.75
2023-03-12T18:17:40.109Z,13.40
2023-03-12T18:20:38.558Z,22.40
2023-03-12T18:23:28.611Z,20.05
2023-03-12T18:26:17.864Z,16.58
2023-03-12T18:29:07.137Z,11.45
2023-03-12T18:31:56.727Z,7.03
2023-03-12T18:34:45.900Z,8.45
2023-03-12T18:37:36.661Z,9.02
2023-03-12T18:40:27.684Z,9.82
2023-03-12T18:43:19.688Z,10.30
2023-03-12T18:49:05.820Z,9.27
2023-03-12T18:51:56.186Z,9.57
2023-03-12T18:54:46.785Z,8.70
2023-03-12T18:57:35.994Z,8.85
2023-03-12T19:00:25.596Z,9.05
2023-03-12T19:03:14.891Z,9.45
2023-03-12T19:06:06.587Z,8.45
2023-03-12T19:08:56.600Z,9.27
2023-03-12T19:11:48.288Z,11.07
2023-03-12T19:14:37.629Z,8.55
2023-03-12T19:17:28.604Z,10.10
2023-03-12T19:20:18.166Z,9.85
2023-03-12T19:23:07.792Z,11.88
2023-03-12T19:25:57.310Z,15.57
2023-03-12T19:28:48.138Z,17.40
2023-03-12T19:31:37.625Z,22.35
2023-03-12T19:34:27.008Z,18.08
2023-03-12T19:37:16.722Z,29.90
2023-03-12T19:40:07.529Z,30.05
2023-03-12T19:42:56.747Z,14.27
2023-03-12T19:45:48.070Z,15.73
2023-03-12T19:48:37.422Z,18.33
2023-03-12T19:51:27.062Z,21.35
2023-03-12T19:54:17.551Z,23.95
2023-03-12T19:57:06.841Z,13.35
2023-03-12T19:59:56.121Z,21.42
2023-03-12T20:02:47.016Z,18.23
2023-03-12T20:05:36.472Z,17.10
2023-03-12T20:08:31.470Z,20.00
2023-03-12T20:11:20.825Z,23.75
2023-03-12T20:14:10.022Z,11.73
2023-03-12T20:16:59.372Z,14.85
2023-03-12T20:19:49.975Z,9.38
2023-03-12T20:22:39.379Z,8.70
2023-03-12T20:25:28.681Z,7.55
2023-03-12T20:28:19.037Z,8.35
2023-03-12T20:31:12.117Z,6.63
2023-03-12T20:36:51.993Z,5.47
2023-03-12T20:39:41.130Z,12.05
2023-03-12T20:42:30.310Z,23.10
2023-03-12T20:45:19.800Z,6.53
2023-03-12T20:48:09.067Z,7.35
2023-03-12T20:50:58.610Z,8.70
2023-03-12T20:53:49.322Z,7.55
2023-03-12T20:56:43.506Z,6.90
2023-03-12T20:59:32.778Z,7.32
2023-03-12T21:02:22.079Z,6.85
2023-03-12T21:05:13.813Z,21.20
2023-03-12T21:08:02.953Z,8.07
2023-03-12T21:10:53.945Z,6.72
2023-03-12T21:13:43.219Z,6.13
2023-03-12T21:16:32.591Z,6.38
2023-03-12T21:19:22.123Z,8.60
2023-03-12T21:22:11.610Z,16.60
2023-03-12T21:25:00.898Z,9.77
2023-03-12T21:27:52.082Z,10.95
2023-03-12T21:30:41.312Z,6.00
2023-03-12T21:33:30.537Z,7.50
2023-03-12T21:36:19.732Z,6.80
2023-03-12T21:39:09.579Z,8.07
2023-03-12T21:41:58.926Z,22.65
2023-03-12T21:44:49.592Z,6.72
2023-03-12T21:47:39.477Z,7.97
2023-03-12T21:50:28.789Z,11.63
2023-03-12T21:53:23.755Z,8.00
2023-03-12T21:56:14.236Z,17.67
2023-03-12T21:59:03.709Z,6.63
2023-03-12T22:01:54.462Z,7.60
2023-03-12T22:04:43.819Z,7.55
2023-03-12T22:07:33.082Z,8.25
2023-03-12T22:10:22.372Z,6.65
2023-03-12T22:13:11.646Z,7.65
2023-03-12T22:16:03.411Z,6.47
2023-03-12T22:18:54.046Z,8.95
2023-03-12T22:21:43.594Z,13.82
2023-03-12T22:24:32.788Z,10.07
2023-03-12T22:27:21.964Z,6.95
2023-03-12T22:30:14.804Z,6.75
2023-03-12T22:33:03.945Z,4.95
2023-03-12T22:35:55.002Z,8.15
2023-03-12T22:38:44.652Z,5.53
2023-03-12T22:41:34.158Z,12.82
2023-03-12T22:44:23.369Z,5.60
2023-03-12T22:47:12.533Z,7.60
2023-03-12T22:50:01.725Z,4.72
2023-03-12T22:52:52.360Z,4.80
2023-03-12T22:55:41.578Z,6.88
2023-03-12T22:58:31.307Z,5.65
2023-03-12T23:01:23.758Z,5.32
2023-03-12T23:04:13.198Z,4.65
2023-03-12T23:07:13.625Z,8.32
2023-03-12T23:10:06.586Z,7.80
2023-03-12T23:12:56.025Z,7.30
2023-03-12T23:15:45.308Z,6.32
2023-03-12T23:18:35.874Z,5.05
2023-03-12T23:21:26.343Z,29.70
2023-03-12T23:24:15.740Z,7.95
2023-03-12T23:27:07.197Z,9.38
2023-03-12T23:29:56.432Z,51.08
2023-03-12T23:32:45.692Z,9.90
2023-03-12T23:35:35.363Z,11.48
2023-03-12T23:38:24.770Z,4.65
2023-03-12T23:41:17.488Z,5.07
2023-03-12T23:44:08.596Z,5.65
2023-03-12T23:46:57.870Z,4.72
2023-03-12T23:49:47.035Z,4.88
2023-03-12T23:52:36.429Z,5.35
2023-03-12T23:55:25.800Z,15.07
2023-03-12T23:58:15.006Z,5.70
